createdAt,value
2023-03-20T00:02:08.092Z,99.90
2023-03-20T00:04:36.796Z,99.90
2023-03-20T00:07:05.593Z,99.90
2023-03-20T00:09:33.895Z,99.90
2023-03-20T00:12:02.148Z,99.90
2023-03-20T00:14:30.294Z,99.90
2023-03-20T00:17:00.275Z,99.90
2023-03-20T00:19:31.063Z,99.90
2023-03-20T00:21:59.376Z,99.90
2023-03-20T00:24:27.338Z,99.90
2023-03-20T00:26:55.953Z,99.90
2023-03-20T00:29:29.712Z,99.90
2023-03-20T00:32:00.349Z,99.90
2023-03-20T00:34:31.892Z,99.90
2023-03-20T00:37:00.054Z,99.90
2023-03-20T00:39:28.440Z,99.90
2023-03-20T00:41:59.050Z,99.90
2023-03-20T00:44:30.447Z,99.90
2023-03-20T00:47:02.794Z,99.90
2023-03-20T00:49:34.234Z,99.90
2023-03-20T00:52:03.638Z,99.90
2023-03-20T00:54:32.530Z,99.90
2023-03-20T00:57:03.999Z,99.90
2023-03-20T00:59:38.200Z,99.90
2023-03-20T01:02:07.972Z,99.90
2023-03-20T01:04:38.603Z,99.90
2023-03-20T01:07:09.009Z,99.90
2023-03-20T01:09:38.512Z,99.90
2023-03-20T01:12:08.468Z,99.90
2023-03-20T01:14:36.590Z,99.90
2023-03-20T01:17:05.267Z,99.90
2023-03-20T01:19:34.861Z,99.90
2023-03-20T01:22:04.389Z,99.90
2023-03-20T01:24:32.692Z,99.90
2023-03-20T01:27:04.258Z,99.90
2023-03-20T01:29:33.366Z,99.90
2023-03-20T01:32:02.202Z,99.90
2023-03-20T01:34:30.613Z,99.90
2023-03-20T01:37:00.392Z,99.90
2023-03-20T01:39:35.101Z,99.90
2023-03-20T01:42:07.183Z,99.90
2023-03-20T01:44:38.923Z,99.90
2023-03-20T01:47:16.019Z,99.90
2023-03-20T01:50:19.461Z,99.90
2023-03-20T01:52:52.085Z,99.90
2023-03-20T01:55:21.653Z,99.90
2023-03-20T01:57:52.266Z,99.90
2023-03-20T02:00:22.190Z,99.90
2023-03-20T02:02:50.347Z,99.90
2023-03-20T02:05:21.895Z,99.90
2023-03-20T02:08:00.270Z,99.90
2023-03-20T02:10:29.009Z,99.90
2023-03-20T02:12:57.607Z,99.90
2023-03-20T02:15:29.466Z,99.90
2023-03-20T02:17:57.639Z,99.90
2023-03-20T02:20:46.356Z,99.90
2023-03-20T02:23:46.060Z,99.90
2023-03-20T02:26:50.452Z,99.90
2023-03-20T02:29:53.066Z,99.90
2023-03-20T02:33:08.446Z,99.90
2023-03-20T02:36:16.801Z,99.90
2023-03-20T02:39:11.752Z,99.90
2023-03-20T02:41:44.423Z,99.90
2023-03-20T02:44:21.834Z,99.90
2023-03-20T02:47:00.303Z,99.90
2023-03-20T02:49:47.082Z,99.90
2023-03-20T02:52:21.548Z,99.90
2023-03-20T02:55:07.324Z,99.90
2023-03-20T02:57:45.255Z,99.90
2023-03-20T03:00:20.136Z,99.90
2023-03-20T03:02:56.644Z,99.90
2023-03-20T03:05:33.838Z,99.90
2023-03-20T03:08:06.526Z,99.90
2023-03-20T03:10:39.312Z,99.90
2023-03-20T03:13:12.380Z,99.90
2023-03-20T03:15:44.860Z,99.90
2023-03-20T03:18:16.480Z,99.90
2023-03-20T03:20:46.441Z,99.90
2023-03-20T03:23:24.292Z,99.90
2023-03-20T03:25:55.412Z,99.90
2023-03-20T03:28:30.196Z,99.90
2023-03-20T03:31:00.177Z,99.90
2023-03-20T03:33:31.552Z,99.90
2023-03-20T03:36:07.834Z,99.90
2023-03-20T03:38:44.749Z,99.90
2023-03-20T03:41:21.676Z,99.90
2023-03-20T03:43:58.045Z,99.90
2023-03-20T03:46:34.415Z,99.90
2023-03-20T03:49:05.865Z,99.90
2023-03-20T03:51:40.379Z,99.90
2023-03-20T03:54:12.521Z,99.90
2023-03-20T03:56:47.769Z,99.90
2023-03-20T03:59:21.921Z,99.90
2023-03-20T04:01:54.262Z,99.90
2023-03-20T04:04:25.763Z,99.90
2023-03-20T04:06:53.829Z,99.90
2023-03-20T04:09:21.791Z,99.90
2023-03-20T04:11:52.958Z,99.90
2023-03-20T04:14:21.821Z,99.90
2023-03-20T04:16:51.378Z,99.90
2023-03-20T04:19:19.657Z,99.90
2023-03-20T04:21:47.586Z,99.90
2023-03-20T04:24:16.173Z,99.90
2023-03-20T04:26:46.513Z,99.90
2023-03-20T04:29:16.012Z,99.90
2023-03-20T04:31:47.612Z,99.90
2023-03-20T04:34:16.521Z,99.90
2023-03-20T04:36:46.850Z,99.90
2023-03-20T04:39:15.162Z,99.90
2023-03-20T04:41:43.539Z,99.90
2023-03-20T04:44:11.604Z,99.90
2023-03-20T04:46:44.179Z,99.90
2023-03-20T04:49:12.216Z,99.90
2023-03-20T04:51:40.563Z,99.90
2023-03-20T04:54:08.545Z,99.90
2023-03-20T04:56:36.541Z,99.90
2023-03-20T04:59:06.414Z,99.90
2023-03-20T05:01:34.387Z,99.90
2023-03-20T05:04:04.477Z,99.90
2023-03-20T05:06:33.349Z,99.90
2023-03-20T05:09:01.920Z,99.90
2023-03-20T05:11:31.182Z,99.90
2023-03-20T05:13:59.110Z,99.90
2023-03-20T05:16:27.204Z,99.90
2023-03-20T05:18:55.726Z,99.90
2023-03-20T05:21:25.172Z,99.90
2023-03-20T05:23:53.260Z,99.90
2023-03-20T05:26:21.660Z,99.90
2023-03-20T05:28:49.744Z,99.90
2023-03-20T05:31:18.154Z,99.90
2023-03-20T05:33:46.535Z,99.90
2023-03-20T05:36:14.535Z,99.90
2023-03-20T05:38:45.120Z,99.90
2023-03-20T05:41:13.177Z,99.90
2023-03-20T05:43:42.883Z,99.90
2023-03-20T05:46:11.021Z,99.90
2023-03-20T05:48:39.043Z,99.90
2023-03-20T05:51:07.619Z,99.90
2023-03-20T05:53:36.306Z,99.90
2023-03-20T05:56:08.654Z,99.90
2023-03-20T06:01:25.631Z,99.90
2023-03-20T06:03:57.172Z,99.90
2023-03-20T06:06:26.551Z,99.90
2023-03-20T06:08:55.268Z,99.90
2023-03-20T06:11:26.012Z,99.90
2023-03-20T06:16:24.913Z,99.90
2023-03-20T06:24:12.432Z,99.90
2023-03-20T06:26:42.064Z,99.90
2023-03-20T06:29:10.999Z,99.90
2023-03-20T06:31:40.398Z,99.90
2023-03-20T06:34:08.521Z,99.90
2023-03-20T06:36:37.018Z,99.90
2023-03-20T06:39:05.970Z,99.90
2023-03-20T06:41:35.196Z,99.90
2023-03-20T06:44:06.346Z,99.90
2023-03-20T06:46:36.425Z,99.90
2023-03-20T06:49:10.312Z,99.90
2023-03-20T06:51:47.844Z,99.90
2023-03-20T06:56:45.345Z,99.90
2023-03-20T06:59:20.228Z,99.90
2023-03-20T07:01:48.564Z,99.90
2023-03-20T07:04:17.389Z,99.90
2023-03-20T07:06:46.002Z,99.90
2023-03-20T07:12:20.005Z,99.90
2023-03-20T07:14:50.020Z,99.90
2023-03-20T07:17:18.120Z,99.90
2023-03-20T07:19:46.733Z,99.90
2023-03-20T07:22:21.947Z,99.90
2023-03-20T07:24:51.257Z,99.90
2023-03-20T07:27:19.457Z,99.90
2023-03-20T07:29:53.193Z,99.90
2023-03-20T07:32:24.834Z,99.90
2023-03-20T07:35:07.730Z,99.90
2023-03-20T07:37:39.143Z,99.90
2023-03-20T07:40:16.056Z,99.90
2023-03-20T07:42:47.131Z,99.90
2023-03-20T07:45:22.999Z,99.90
2023-03-20T07:47:53.411Z,99.90
2023-03-20T07:50:22.481Z,99.90
2023-03-20T07:52:51.296Z,99.90
2023-03-20T07:55:20.114Z,99.90
2023-03-20T07:57:51.034Z,99.90
2023-03-20T08:00:25.228Z,99.90
2023-03-20T08:03:00.343Z,99.90
2023-03-20T08:05:32.596Z,99.90
2023-03-20T08:08:03.791Z,99.90
2023-03-20T08:10:33.752Z,99.90
2023-03-20T08:13:04.206Z,99.90
2023-03-20T08:15:36.260Z,99.90
2023-03-20T08:18:04.896Z,99.90
2023-03-20T08:20:33.906Z,99.90
2023-03-20T08:23:03.844Z,99.90
2023-03-20T08:25:34.639Z,99.90
2023-03-20T08:28:03.868Z,99.90
2023-03-20T08:30:41.529Z,99.90
2023-03-20T08:33:12.827Z,99.90
2023-03-20T08:35:41.303Z,99.90
2023-03-20T08:38:13.395Z,99.90
2023-03-20T08:40:47.482Z,99.90
2023-03-20T08:43:17.993Z,99.90
2023-03-20T08:45:50.940Z,99.90
2023-03-20T08:48:19.379Z,99.90
2023-03-20T08:50:49.893Z,99.90
2023-03-20T08:53:22.262Z,99.90
2023-03-20T08:55:52.198Z,99.90
2023-03-20T08:58:24.168Z,99.90
2023-03-20T09:00:57.237Z,99.90
2023-03-20T09:03:25.921Z,99.90
2023-03-20T09:05:54.684Z,99.90
2023-03-20T09:08:23.433Z,99.90
2023-03-20T09:10:53.447Z,99.90
2023-03-20T09:13:27.487Z,99.90
2023-03-20T09:15:58.213Z,99.90
2023-03-20T09:18:29.540Z,99.90
2023-03-20T09:20:57.841Z,99.90
2023-03-20T09:23:27.415Z,99.90
2023-03-20T09:25:56.643Z,99.90
2023-03-20T09:28:27.253Z,99.90
2023-03-20T09:31:01.208Z,99.90
2023-03-20T09:33:30.520Z,99.90
2023-03-20T09:36:01.945Z,99.90
2023-03-20T09:38:32.811Z,99.90
2023-03-20T09:41:05.967Z,99.90
2023-03-20T09:43:39.834Z,99.90
2023-03-20T09:46:26.675Z,99.90
2023-03-20T09:49:05.666Z,99.90
2023-03-20T09:51:42.102Z,99.90
2023-03-20T09:54:20.916Z,99.90
2023-03-20T09:56:51.565Z,99.90
2023-03-20T09:59:21.653Z,99.90
2023-03-20T10:01:55.941Z,99.90
2023-03-20T10:04:29.079Z,99.90
2023-03-20T10:06:58.608Z,99.90
2023-03-20T10:09:30.595Z,99.90
2023-03-20T10:12:28.668Z,99.90
2023-03-20T10:15:08.312Z,99.90
2023-03-20T10:17:51.058Z,99.90
2023-03-20T10:20:29.617Z,99.90
2023-03-20T10:23:04.562Z,99.90
2023-03-20T10:25:36.514Z,99.90
2023-03-20T10:28:16.251Z,99.90
2023-03-20T10:30:56.082Z,99.90
2023-03-20T10:33:40.046Z,99.90
2023-03-20T10:36:24.799Z,99.90
2023-03-20T10:39:00.701Z,99.90
2023-03-20T10:41:34.077Z,99.90
2023-03-20T10:44:05.230Z,99.90
2023-03-20T10:46:37.191Z,99.90
2023-03-20T10:49:19.379Z,99.90
2023-03-20T10:51:50.881Z,99.90
2023-03-20T10:54:25.813Z,99.90
2023-03-20T10:56:56.966Z,99.90
2023-03-20T10:59:27.373Z,99.90
2023-03-20T11:01:56.170Z,99.90
2023-03-20T11:04:25.878Z,99.90
2023-03-20T11:07:01.301Z,99.90
2023-03-20T11:09:31.356Z,99.90
2023-03-20T11:12:02.939Z,99.90
2023-03-20T11:14:35.426Z,99.90
2023-03-20T11:17:05.665Z,99.90
2023-03-20T11:19:37.252Z,99.90
2023-03-20T11:22:10.134Z,99.90
2023-03-20T11:24:42.427Z,99.90
2023-03-20T11:27:12.052Z,99.90
2023-03-20T11:29:43.162Z,99.90
2023-03-20T11:32:23.768Z,99.90
2023-03-20T11:34:57.444Z,99.90
2023-03-20T11:37:29.337Z,99.90
2023-03-20T11:40:01.680Z,99.90
2023-03-20T11:42:32.299Z,99.90
2023-03-20T11:45:06.870Z,99.90
2023-03-20T11:47:36.723Z,99.90
2023-03-20T11:50:08.444Z,99.90
2023-03-20T11:52:39.974Z,99.90
2023-03-20T11:55:24.232Z,99.90
2023-03-20T11:57:52.404Z,99.90
2023-03-20T12:00:22.520Z,99.90
2023-03-20T12:02:52.232Z,99.90
2023-03-20T12:05:31.844Z,99.90
2023-03-20T12:08:04.814Z,99.90
2023-03-20T12:10:39.485Z,99.90
2023-03-20T12:13:14.475Z,99.90
2023-03-20T12:15:47.846Z,99.90
2023-03-20T12:18:31.006Z,99.90
2023-03-20T12:21:08.499Z,99.90
2023-03-20T12:23:40.756Z,99.90
2023-03-20T12:26:13.919Z,99.90
2023-03-20T12:28:49.411Z,99.90
2023-03-20T12:31:25.115Z,99.90
2023-03-20T12:33:58.717Z,99.90
2023-03-20T12:36:33.396Z,99.90
2023-03-20T12:39:04.431Z,99.90
2023-03-20T12:41:41.808Z,99.90
2023-03-20T12:44:28.296Z,99.90
2023-03-20T12:47:06.164Z,99.90
2023-03-20T12:49:46.532Z,99.90
2023-03-20T12:52:21.595Z,99.90
2023-03-20T12:55:31.176Z,99.90
2023-03-20T12:58:07.223Z,99.90
2023-03-20T13:00:41.309Z,99.90
2023-03-20T13:03:33.128Z,99.90
2023-03-20T13:06:11.099Z,99.90
2023-03-20T13:08:52.643Z,99.90
2023-03-20T13:11:28.034Z,99.90
2023-03-20T13:14:00.335Z,99.90
2023-03-20T13:16:40.285Z,99.90
2023-03-20T13:19:15.909Z,99.90
2023-03-20T13:21:55.524Z,99.90
2023-03-20T13:27:28.827Z,99.90
2023-03-20T13:30:02.916Z,99.90
2023-03-20T13:32:41.881Z,99.90
2023-03-20T13:35:27.174Z,99.90
2023-03-20T13:37:58.036Z,99.90
2023-03-20T13:40:30.570Z,99.90
2023-03-20T13:43:13.931Z,99.90
2023-03-20T13:45:44.595Z,99.90
2023-03-20T13:48:26.272Z,99.90
2023-03-20T13:51:05.400Z,99.90
2023-03-20T13:53:43.888Z,99.90
2023-03-20T13:56:20.533Z,99.90
2023-03-20T14:01:53.859Z,99.90
2023-03-20T14:04:24.948Z,99.90
2023-03-20T14:06:57.333Z,99.90
2023-03-20T14:09:34.046Z,99.90
2023-03-20T14:12:05.967Z,99.90
2023-03-20T14:14:41.168Z,99.90
2023-03-20T14:17:19.611Z,99.90
2023-03-20T14:19:49.375Z,99.90
2023-03-20T14:22:20.503Z,99.90
2023-03-20T14:25:15.545Z,99.90
2023-03-20T14:27:57.200Z,99.90
2023-03-20T14:30:41.340Z,99.90
2023-03-20T14:33:27.889Z,99.90
2023-03-20T14:41:17.969Z,99.90
2023-03-20T15:02:28.037Z,99.90
2023-03-20T15:05:22.659Z,99.90
2023-03-20T15:15:27.211Z,99.90
2023-03-20T15:20:29.452Z,99.90
2023-03-20T15:22:59.812Z,99.90
2023-03-20T15:25:32.961Z,99.90
2023-03-20T15:30:33.980Z,99.90
2023-03-20T15:33:06.146Z,99.90
2023-03-20T15:35:36.056Z,99.90
2023-03-20T15:38:10.889Z,99.90
2023-03-20T15:40:50.480Z,99.90
2023-03-20T15:43:23.817Z,99.90
2023-03-20T15:46:14.228Z,99.90
2023-03-20T15:53:48.871Z,99.90
2023-03-20T15:56:19.951Z,99.90
2023-03-20T15:58:52.530Z,99.90
2023-03-20T16:01:22.616Z,99.90
2023-03-20T16:03:53.176Z,99.90
2023-03-20T16:06:27.317Z,99.90
2023-03-20T16:09:00.775Z,99.90
2023-03-20T16:11:39.564Z,99.90
2023-03-20T16:14:09.630Z,99.90
2023-03-20T16:19:10.445Z,99.90
2023-03-20T16:21:45.450Z,99.90
2023-03-20T16:24:20.908Z,99.90
2023-03-20T16:26:55.303Z,99.90
2023-03-20T16:29:28.582Z,99.90
2023-03-20T16:32:00.774Z,99.90
2023-03-20T16:34:36.953Z,99.90
2023-03-20T16:37:25.920Z,99.90
2023-03-20T16:40:16.031Z,99.90
2023-03-20T16:45:28.142Z,99.90
2023-03-20T16:48:22.892Z,99.90
2023-03-20T16:50:58.210Z,99.90
2023-03-20T16:53:31.207Z,99.90
2023-03-20T16:58:32.436Z,99.90
2023-03-20T17:01:03.044Z,99.90
2023-03-20T17:03:40.032Z,99.90
2023-03-20T17:06:29.706Z,99.90
2023-03-20T17:09:04.780Z,99.90
2023-03-20T17:11:36.137Z,99.90
2023-03-20T17:14:07.001Z,99.90
2023-03-20T17:19:10.627Z,63.50
2023-03-20T17:24:11.131Z,27.30
2023-03-20T17:36:35.842Z,1.00
2023-03-20T17:41:34.767Z,1.00
2023-03-20T17:46:38.114Z,1.00
2023-03-20T17:49:19.600Z,1.00
2023-03-20T17:56:47.912Z,1.00
2023-03-20T18:09:15.346Z,1.00
2023-03-20T18:14:17.445Z,1.00
2023-03-20T18:19:24.046Z,1.00
2023-03-20T18:26:50.914Z,1.00
2023-03-20T18:29:21.066Z,1.00
2023-03-20T18:34:18.241Z,1.00
2023-03-20T18:39:19.069Z,1.00
2023-03-20T18:41:47.756Z,1.00
2023-03-20T18:46:46.312Z,1.00
2023-03-20T18:49:17.583Z,1.00
2023-03-20T18:51:46.728Z,1.00
2023-03-20T19:04:16.249Z,1.00
2023-03-20T19:19:12.944Z,1.00
2023-03-20T19:21:45.777Z,1.00
2023-03-20T19:29:14.033Z,1.00
2023-03-20T19:37:01.135Z,1.80
2023-03-20T19:52:28.664Z,16.70
2023-03-20T20:05:27.084Z,19.00
2023-03-20T20:10:48.914Z,28.80
2023-03-20T20:13:19.290Z,37.40
2023-03-20T20:18:17.662Z,32.50
2023-03-20T20:23:39.401Z,53.60
2023-03-20T20:37:13.249Z,31.60
2023-03-20T20:39:02.292Z,40.40
2023-03-20T20:54:19.403Z,80.90
2023-03-20T20:59:17.654Z,68.50
2023-03-20T21:09:34.671Z,92.60
2023-03-20T21:12:06.762Z,90.90
2023-03-20T21:19:35.731Z,94.50
2023-03-20T21:24:35.627Z,90.40
2023-03-20T21:27:05.802Z,92.30
2023-03-20T21:39:59.262Z,94.50
2023-03-20T21:56:50.477Z,99.90
2023-03-20T22:13:59.466Z,99.90
2023-03-20T23:02:13.021Z,99.90
2023-03-20T23:17:15.980Z,99.90
2023-03-20T23:32:22.963Z,99.90
2023-03-20T23:47:49.603Z,99.90
2023-03-20T23:50:27.690Z,99.90
2023-03-20T23:55:50.183Z,99.90
2023-03-20T23:58:21.228Z,99.90
